createdAt,value
2019-03-13T00:01:42.602Z,100161.21
2019-03-13T00:05:46.164Z,100171.03
2019-03-13T00:09:48.447Z,100170.17
2019-03-13T00:13:52.176Z,100174.44
2019-03-13T00:17:54.433Z,100165.87
2019-03-13T00:21:56.953Z,100167.09
2019-03-13T00:26:06.449Z,100167.11
2019-03-13T00:30:09.644Z,100169.22
2019-03-13T00:34:11.940Z,100161.92
2019-03-13T00:38:14.289Z,100155.52
2019-03-13T00:42:16.668Z,100157.64
2019-03-13T00:46:19.551Z,100164.02
2019-03-13T00:50:26.535Z,100176.88
2019-03-13T00:54:29.646Z,100168.32
2019-03-13T00:58:32.279Z,100161.50
2019-03-13T01:02:40.214Z,100165.33
2019-03-13T01:06:45.338Z,100175.55
2019-03-13T01:10:47.918Z,100175.14
2019-03-13T01:14:50.497Z,100181.95
2019-03-13T01:18:53.241Z,100189.58
2019-03-13T01:22:56.831Z,100185.73
2019-03-13T01:26:59.740Z,100179.33
2019-03-13T01:31:14.003Z,100169.03
2019-03-13T01:35:23.410Z,100170.34
2019-03-13T01:39:25.917Z,100163.91
2019-03-13T01:43:28.751Z,100159.98
2019-03-13T01:47:31.180Z,100167.20
2019-03-13T01:51:33.916Z,100169.78
2019-03-13T01:55:38.401Z,100158.74
2019-03-13T01:59:41.426Z,100165.60
2019-03-13T02:03:43.996Z,100163.88
2019-03-13T02:07:46.909Z,100160.83
2019-03-13T02:11:49.608Z,100158.70
2019-03-13T02:15:52.680Z,100156.99
2019-03-13T02:19:55.826Z,100145.03
2019-03-13T02:23:58.549Z,100151.40
2019-03-13T02:28:01.367Z,100162.91
2019-03-13T02:32:05.166Z,100151.38
2019-03-13T02:36:07.883Z,100154.83
2019-03-13T02:40:11.515Z,100155.22
2019-03-13T02:44:14.023Z,100143.62
2019-03-13T02:48:16.546Z,100149.98
2019-03-13T02:52:19.298Z,100141.01
2019-03-13T02:56:22.136Z,100140.94
2019-03-13T03:00:37.919Z,100142.20
2019-03-13T03:04:41.226Z,100140.44
2019-03-13T03:08:43.846Z,100144.34
2019-03-13T03:12:46.761Z,100152.39
2019-03-13T03:16:49.233Z,100149.81
2019-03-13T03:20:51.982Z,100155.75
2019-03-13T03:24:54.700Z,100152.25
2019-03-13T03:28:57.392Z,100153.97
2019-03-13T03:33:00.091Z,100153.56
2019-03-13T03:37:02.924Z,100159.04
2019-03-13T03:41:05.501Z,100160.30
2019-03-13T03:45:08.412Z,100158.65
2019-03-13T03:49:11.005Z,100149.70
2019-03-13T03:53:13.762Z,100153.56
2019-03-13T03:57:17.309Z,100149.27
2019-03-13T04:01:19.972Z,100150.95
2019-03-13T04:05:22.881Z,100145.40
2019-03-13T04:09:25.621Z,100145.84
2019-03-13T04:13:28.343Z,100137.67
2019-03-13T04:17:31.343Z,100137.67
2019-03-13T04:21:33.926Z,100134.25
2019-03-13T04:25:37.646Z,100129.53
2019-03-13T04:29:40.812Z,100125.22
2019-03-13T04:33:43.506Z,100130.81
2019-03-13T04:37:46.124Z,100128.33
2019-03-13T04:41:48.792Z,100130.39
2019-03-13T04:45:51.420Z,100132.09
2019-03-13T04:49:54.042Z,100117.97
2019-03-13T04:53:56.483Z,100120.18
2019-03-13T04:57:59.681Z,100112.13
2019-03-13T05:02:02.465Z,100111.33
2019-03-13T05:06:18.840Z,100099.87
2019-03-13T05:10:21.447Z,100095.73
2019-03-13T05:14:26.705Z,100099.71
2019-03-13T05:18:29.304Z,100105.86
2019-03-13T05:22:32.072Z,100109.78
2019-03-13T05:26:34.676Z,100111.06
2019-03-13T05:30:37.370Z,100111.53
2019-03-13T05:34:39.990Z,100111.58
2019-03-13T05:38:42.980Z,100112.43
2019-03-13T05:42:45.690Z,100108.58
2019-03-13T05:46:48.324Z,100099.45
2019-03-13T05:50:50.863Z,100096.22
2019-03-13T05:54:53.524Z,100085.66
2019-03-13T05:58:56.357Z,100091.20
2019-03-13T06:02:59.011Z,100095.55
2019-03-13T06:07:01.661Z,100098.99
2019-03-13T06:11:04.576Z,100097.31
2019-03-13T06:15:07.517Z,100093.33
2019-03-13T06:19:10.429Z,100084.03
2019-03-13T06:23:14.140Z,100097.90
2019-03-13T06:27:17.104Z,100105.39
2019-03-13T06:31:20.199Z,100105.15
2019-03-13T06:35:23.994Z,100105.15
2019-03-13T06:39:26.878Z,100099.48
2019-03-13T06:43:29.799Z,100086.66
2019-03-13T06:47:32.060Z,100081.88
2019-03-13T06:51:34.528Z,100079.72
2019-03-13T06:55:36.771Z,100086.20
2019-03-13T06:59:58.748Z,100082.00
2019-03-13T07:04:21.144Z,100080.55
2019-03-13T07:08:34.167Z,100075.05
2019-03-13T07:13:01.157Z,100072.47
2019-03-13T07:17:29.435Z,100074.76
2019-03-13T07:21:48.719Z,100065.51
2019-03-13T07:25:57.314Z,100062.70
2019-03-13T07:30:14.393Z,100067.89
2019-03-13T07:34:32.551Z,100064.11
2019-03-13T07:38:56.647Z,100066.45
2019-03-13T07:43:06.313Z,100067.75
2019-03-13T07:47:33.232Z,100065.56
2019-03-13T07:51:49.331Z,100055.51
2019-03-13T07:56:10.458Z,100062.86
2019-03-13T08:00:47.044Z,100053.38
2019-03-13T08:04:59.518Z,100060.93
2019-03-13T08:09:21.029Z,100059.39
2019-03-13T08:13:40.940Z,100061.13
2019-03-13T08:18:04.908Z,100050.89
2019-03-13T08:22:32.130Z,100050.58
2019-03-13T08:26:50.387Z,100048.38
2019-03-13T08:31:10.170Z,100051.01
2019-03-13T08:35:31.314Z,100050.27
2019-03-13T08:40:04.990Z,100055.80
2019-03-13T08:44:32.658Z,100041.61
2019-03-13T08:49:02.627Z,100048.17
2019-03-13T08:53:22.615Z,100051.56
2019-03-13T08:57:39.469Z,100052.20
2019-03-13T09:02:00.645Z,100053.16
2019-03-13T09:06:30.914Z,100049.73
2019-03-13T09:10:47.820Z,100043.64
2019-03-13T09:15:12.195Z,100032.76
2019-03-13T09:19:42.688Z,100031.84
2019-03-13T09:24:02.728Z,100025.77
2019-03-13T09:28:22.702Z,100029.64
2019-03-13T09:32:47.741Z,100028.23
2019-03-13T09:37:18.221Z,100028.50
2019-03-13T09:41:39.382Z,100031.90
2019-03-13T09:46:03.820Z,100015.64
2019-03-13T09:50:25.176Z,100018.11
2019-03-13T09:54:45.190Z,100012.48
2019-03-13T09:59:15.761Z,100021.95
2019-03-13T10:03:37.368Z,100018.73
2019-03-13T10:07:45.629Z,100013.08
2019-03-13T10:11:56.978Z,100013.58
2019-03-13T10:16:14.523Z,100010.33
2019-03-13T10:20:26.848Z,100014.75
2019-03-13T10:24:46.891Z,100015.37
2019-03-13T10:29:17.471Z,100009.61
2019-03-13T10:33:26.851Z,100020.90
2019-03-13T10:37:54.003Z,100016.83
2019-03-13T10:42:08.297Z,100014.45
2019-03-13T10:46:29.386Z,100015.41
2019-03-13T10:50:54.706Z,100001.06
2019-03-13T10:55:15.120Z,100001.22
2019-03-13T10:59:32.803Z,99996.98
2019-03-13T11:03:57.103Z,99992.02
2019-03-13T11:08:11.441Z,99993.84
2019-03-13T11:12:28.789Z,99991.50
2019-03-13T11:16:59.015Z,99986.92
2019-03-13T11:21:07.844Z,99982.02
2019-03-13T11:25:22.189Z,99968.05
2019-03-13T11:29:30.717Z,99956.05
2019-03-13T11:33:50.624Z,99970.45
2019-03-13T11:37:59.574Z,99961.56
2019-03-13T11:42:29.834Z,99961.88
2019-03-13T11:46:51.323Z,99952.09
2019-03-13T11:51:11.421Z,99944.34
2019-03-13T11:55:36.034Z,99925.23
2019-03-13T11:59:52.577Z,99930.77
2019-03-13T12:04:13.975Z,99941.89
2019-03-13T12:08:24.174Z,99945.55
2019-03-13T12:12:42.412Z,99946.18
2019-03-13T12:17:02.551Z,99938.44
2019-03-13T12:21:27.044Z,99937.05
2019-03-13T12:25:46.967Z,99938.48
2019-03-13T12:30:06.920Z,99929.98
2019-03-13T12:34:21.009Z,99930.78
2019-03-13T12:38:45.122Z,99921.52
2019-03-13T12:43:18.276Z,99909.36
2019-03-13T12:47:42.800Z,99909.39
2019-03-13T12:52:13.342Z,99903.62
2019-03-13T12:56:43.528Z,99906.88
2019-03-13T13:01:12.273Z,99896.73
2019-03-13T13:05:24.492Z,99895.98
2019-03-13T13:09:44.721Z,99887.59
2019-03-13T13:14:05.573Z,99885.95
2019-03-13T13:18:21.611Z,99876.25
2019-03-13T13:22:24.033Z,99873.66
2019-03-13T13:26:26.297Z,99875.61
2019-03-13T13:30:28.779Z,99870.19
2019-03-13T13:34:31.099Z,99861.63
2019-03-13T13:38:33.574Z,99852.06
2019-03-13T13:42:35.843Z,99846.12
2019-03-13T13:46:40.539Z,99846.86
2019-03-13T13:50:42.806Z,99834.27
2019-03-13T13:54:46.207Z,99827.83
2019-03-13T13:58:48.472Z,99820.08
2019-03-13T14:02:51.562Z,99815.44
2019-03-13T14:06:54.638Z,99803.64
2019-03-13T14:10:57.313Z,99797.72
2019-03-13T14:15:00.504Z,99802.37
2019-03-13T14:19:03.588Z,99794.02
2019-03-13T14:23:05.855Z,99776.96
2019-03-13T14:27:14.480Z,99789.26
2019-03-13T14:31:12.700Z,99794.38
2019-03-13T14:35:15.141Z,99801.25
2019-03-13T14:39:18.410Z,99807.02
2019-03-13T14:43:20.763Z,99803.87
2019-03-13T14:47:23.045Z,99796.05
2019-03-13T14:51:25.515Z,99801.44
2019-03-13T14:55:27.839Z,99793.75
2019-03-13T14:59:30.194Z,99792.14
2019-03-13T15:03:32.443Z,99789.55
2019-03-13T15:07:34.823Z,99796.02
2019-03-13T15:11:37.089Z,99799.34
2019-03-13T15:15:39.815Z,99800.72
2019-03-13T15:19:45.414Z,99798.34
2019-03-13T15:23:49.613Z,99798.34
2019-03-13T15:27:51.925Z,99779.72
2019-03-13T15:31:54.252Z,99781.55
2019-03-13T15:35:56.544Z,99770.78
2019-03-13T15:39:58.850Z,99787.89
2019-03-13T15:44:01.084Z,99780.09
2019-03-13T15:48:03.480Z,99774.95
2019-03-13T15:52:05.754Z,99775.58
2019-03-13T15:56:08.204Z,99768.43
2019-03-13T16:00:16.921Z,99770.36
2019-03-13T16:04:20.219Z,99777.36
2019-03-13T16:08:22.479Z,99773.13
2019-03-13T16:12:24.820Z,99768.66
2019-03-13T16:16:27.055Z,99762.66
2019-03-13T16:20:29.387Z,99762.66
2019-03-13T16:24:33.031Z,99764.48
2019-03-13T16:28:35.546Z,99764.82
2019-03-13T16:32:43.748Z,99767.05
2019-03-13T16:36:44.229Z,99768.66
2019-03-13T16:40:48.120Z,99782.59
2019-03-13T16:44:50.657Z,99776.80
2019-03-13T16:48:52.944Z,99770.27
2019-03-13T16:52:55.304Z,99771.11
2019-03-13T16:56:57.673Z,99768.95
2019-03-13T17:01:00.121Z,99754.95
2019-03-13T17:05:02.360Z,99764.41
2019-03-13T17:09:07.155Z,99750.02
2019-03-13T17:13:10.413Z,99746.84
2019-03-13T17:17:12.787Z,99751.63
2019-03-13T17:21:15.077Z,99736.61
2019-03-13T17:25:18.560Z,99735.23
2019-03-13T17:29:21.277Z,99734.61
2019-03-13T17:33:23.626Z,99735.62
2019-03-13T17:37:25.922Z,99734.15
2019-03-13T17:41:28.367Z,99736.61
2019-03-13T17:45:32.167Z,99729.05
2019-03-13T17:49:34.499Z,99723.95
2019-03-13T17:53:36.881Z,99720.25
2019-03-13T17:57:39.265Z,99721.50
2019-03-13T18:01:41.663Z,99728.73
2019-03-13T18:05:44.359Z,99728.08
2019-03-13T18:09:46.621Z,99721.47
2019-03-13T18:13:49.004Z,99747.72
2019-03-13T18:17:52.518Z,99719.70
2019-03-13T18:21:54.859Z,99726.60
2019-03-13T18:25:57.358Z,99723.40
2019-03-13T18:29:59.869Z,99723.27
2019-03-13T18:34:02.183Z,99720.88
2019-03-13T18:38:04.518Z,99716.42
2019-03-13T18:42:07.073Z,99715.38
2019-03-13T18:46:09.654Z,99716.84
2019-03-13T18:50:13.129Z,99710.52
2019-03-13T18:54:15.477Z,99700.31
2019-03-13T18:58:17.714Z,99693.47
2019-03-13T19:02:20.024Z,99694.00
2019-03-13T19:06:22.359Z,99694.55
2019-03-13T19:10:25.417Z,99691.08
2019-03-13T19:14:27.766Z,99686.30
2019-03-13T19:18:30.150Z,99676.84
2019-03-13T19:22:32.636Z,99676.39
2019-03-13T19:26:34.995Z,99671.72
2019-03-13T19:30:38.205Z,99663.93
2019-03-13T19:34:40.810Z,99671.78
2019-03-13T19:38:43.152Z,99666.09
2019-03-13T19:42:47.480Z,99656.54
2019-03-13T19:46:49.877Z,99655.72
2019-03-13T19:50:52.260Z,99655.72
2019-03-13T19:54:54.577Z,99644.86
2019-03-13T19:58:57.331Z,99639.08
2019-03-13T20:03:00.755Z,99633.94
2019-03-13T20:07:03.563Z,99633.84
2019-03-13T20:11:06.124Z,99622.07
2019-03-13T20:15:10.279Z,99623.77
2019-03-13T20:19:12.593Z,99613.20
2019-03-13T20:23:14.955Z,99612.69
2019-03-13T20:27:17.358Z,99606.14
2019-03-13T20:31:20.087Z,99606.50
2019-03-13T20:35:22.465Z,99601.66
2019-03-13T20:39:25.081Z,99599.34
2019-03-13T20:43:27.864Z,99594.88
2019-03-13T20:47:30.512Z,99593.41
2019-03-13T20:51:32.860Z,99591.25
2019-03-13T20:55:35.345Z,99582.00
2019-03-13T20:59:37.867Z,99573.23
2019-03-13T21:03:40.476Z,99575.22
2019-03-13T21:07:42.823Z,99575.58
2019-03-13T21:11:45.277Z,99568.50
2019-03-13T21:15:47.544Z,99565.43
2019-03-13T21:19:49.891Z,99564.87
2019-03-13T21:23:52.223Z,99567.78
2019-03-13T21:27:54.547Z,99557.14
2019-03-13T21:31:57.483Z,99562.30
2019-03-13T21:35:59.810Z,99554.28
2019-03-13T21:40:02.056Z,99555.03
2019-03-13T21:44:05.600Z,99554.47
2019-03-13T21:48:07.841Z,99548.70
2019-03-13T21:52:10.244Z,99551.15
2019-03-13T21:56:12.477Z,99543.48
2019-03-13T22:00:18.266Z,99542.00
2019-03-13T22:04:24.444Z,99539.70
2019-03-13T22:08:24.759Z,99536.52
2019-03-13T22:12:27.086Z,99541.23
2019-03-13T22:16:29.455Z,99538.61
2019-03-13T22:20:31.733Z,99537.41
2019-03-13T22:24:34.189Z,99521.91
2019-03-13T22:28:37.665Z,99522.27
2019-03-13T22:32:40.409Z,99510.30
2019-03-13T22:36:42.927Z,99510.69
2019-03-13T22:40:45.253Z,99509.02
2019-03-13T22:44:47.809Z,99504.16
2019-03-13T22:48:58.105Z,99498.82
2019-03-13T22:52:54.478Z,99499.10
2019-03-13T22:56:56.950Z,99498.92
2019-03-13T23:01:06.176Z,99492.76
2019-03-13T23:05:09.677Z,99505.33
2019-03-13T23:09:14.015Z,99494.27
2019-03-13T23:13:17.599Z,99492.04
2019-03-13T23:17:20.289Z,99485.38
2019-03-13T23:21:22.712Z,99482.19
2019-03-13T23:25:24.980Z,99478.64
2019-03-13T23:29:27.363Z,99477.61
2019-03-13T23:33:29.970Z,99481.01
2019-03-13T23:37:32.304Z,99478.09
2019-03-13T23:41:34.564Z,99473.31
2019-03-13T23:45:36.879Z,99468.08
2019-03-13T23:49:39.154Z,99467.53
2019-03-13T23:53:41.548Z,99468.73
2019-03-13T23:57:43.911Z,99469.48
